Time,TemperatureF,DewpointF,PressureIn,WindDirection,WindDirectionDegrees,WindSpeedMPH,WindSpeedGustMPH,Humidity,HourlyPrecipIn,Conditions,Clouds,dailyrainin,SoftwareType,DateUTC
2013-11-16 00:05:00,31.4,23.1,30.29,WSW,241,0.0,0.0,71,0.00,CLR,,0.00,WeatherDisplay:10.37,2013-11-16 05:05:00,
2013-11-16 00:10:00,31.4,23.1,30.29,WSW,241,0.0,0.0,71,0.00,CLR,,0.00,WeatherDisplay:10.37,2013-11-16 05:10:00,
2013-11-16 00:15:00,31.4,23.1,30.29,WSW,241,0.0,0.0,71,0.00,CLR,,0.00,WeatherDisplay:10.37,2013-11-16 05:15:00,
2013-11-16 00:20:00,31.4,23.1,30.29,WSW,241,0.0,0.0,71,0.00,CLR,,0.00,WeatherDisplay:10.37,2013-11-16 05:20:00,
2013-11-16 00:30:00,31.5,23.2,30.28,WSW,241,0.0,0.0,71,0.00,CLR,,0.00,WeatherDisplay:10.37,2013-11-16 05:30:00,
2013-11-16 00:40:00,31.7,23.4,30.28,WSW,241,0.0,0.0,71,0.00,CLR,,0.00,WeatherDisplay:10.37,2013-11-16 05:40:00,
2013-11-16 00:45:00,31.8,23.5,30.28,WSW,241,0.0,0.0,71,0.00,CLR,,0.00,WeatherDisplay:10.37,2013-11-16 05:45:00,
2013-11-16 00:50:00,31.7,23.4,30.27,WSW,241,0.0,0.0,71,0.00,CLR,,0.00,WeatherDisplay:10.37,2013-11-16 05:50:00,
2013-11-16 01:00:00,31.7,23.3,30.27,WSW,241,0.0,0.0,71,0.00,CLR,,0.00,WeatherDisplay:10.37,2013-11-16 06:00:00,
2013-11-16 01:10:00,31.7,23.4,30.28,WSW,241,0.0,0.0,71,0.00,CLR,,0.00,WeatherDisplay:10.37,2013-11-16 06:10:00,
2013-11-16 01:15:00,31.5,23.2,30.28,WSW,241,0.0,0.0,71,0.00,CLR,,0.00,WeatherDisplay:10.37,2013-11-16 06:15:00,
2013-11-16 01:20:00,31.6,23.3,30.28,WSW,241,0.0,0.0,71,0.00,CLR,,0.00,WeatherDisplay:10.37,2013-11-16 06:20:00,
2013-11-16 01:30:00,32.0,23.7,30.29,WSW,241,0.0,0.0,71,0.00,CLR,,0.00,WeatherDisplay:10.37,2013-11-16 06:30:00,
2013-11-16 01:40:00,32.2,23.8,30.29,WSW,241,0.0,0.0,71,0.00,CLR,,0.00,WeatherDisplay:10.37,2013-11-16 06:40:00,
2013-11-16 01:45:00,32.1,23.7,30.29,WSW,241,0.0,0.0,71,0.00,CLR,,0.00,WeatherDisplay:10.37,2013-11-16 06:45:00,
2013-11-16 01:50:00,32.4,24.0,30.29,WSW,241,0.0,0.0,71,0.00,CLR,,0.00,WeatherDisplay:10.37,2013-11-16 06:50:00,
2013-11-16 02:00:00,32.8,24.4,30.30,WSW,241,0.0,0.0,71,0.00,CLR,,0.00,WeatherDisplay:10.37,2013-11-16 07:00:00,
2013-11-16 02:10:00,33.0,24.7,30.30,WSW,241,0.0,0.0,71,0.00,CLR,,0.00,WeatherDisplay:10.37,2013-11-16 07:10:00,
2013-11-16 02:15:00,33.0,24.6,30.30,WSW,241,0.0,0.0,71,0.00,CLR,,0.00,WeatherDisplay:10.37,2013-11-16 07:15:00,
2013-11-16 02:20:00,32.8,24.4,30.31,WSW,241,0.0,0.0,71,0.00,CLR,,0.00,WeatherDisplay:10.37,2013-11-16 07:20:00,
2013-11-16 02:30:00,32.8,24.4,30.30,WSW,241,0.0,0.0,71,0.00,CLR,,0.00,WeatherDisplay:10.37,2013-11-16 07:30:00,
2013-11-16 02:40:00,33.0,24.6,30.30,WSW,241,0.0,0.0,71,0.00,CLR,,0.00,WeatherDisplay:10.37,2013-11-16 07:40:00,
2013-11-16 02:45:00,32.9,24.5,30.30,WSW,241,0.0,0.0,71,0.00,CLR,,0.00,WeatherDisplay:10.37,2013-11-16 07:45:00,
2013-11-16 02:50:00,32.9,24.5,30.30,WSW,241,0.0,0.0,71,0.00,CLR,,0.00,WeatherDisplay:10.37,2013-11-16 07:50:00,
2013-11-16 02:55:00,32.8,24.4,30.30,WSW,241,0.0,0.0,71,0.00,CLR,,0.00,WeatherDisplay:10.37,2013-11-16 07:55:00,
2013-11-16 03:05:00,32.4,24.0,30.30,WSW,241,0.0,0.0,71,0.00,CLR,,0.00,WeatherDisplay:10.37,2013-11-16 08:05:00,
2013-11-16 03:10:00,32.4,24.1,30.30,WSW,241,0.0,0.0,71,0.00,CLR,,0.00,WeatherDisplay:10.37,2013-11-16 08:10:00,
2013-11-16 03:20:00,32.7,24.3,30.30,WSW,241,0.0,0.0,71,0.00,CLR,,0.00,WeatherDisplay:10.37,2013-11-16 08:20:00,
2013-11-16 03:30:00,33.1,24.7,30.30,WSW,241,0.0,0.0,71,0.00,CLR,,0.00,WeatherDisplay:10.37,2013-11-16 08:30:00,
2013-11-16 03:40:00,33.7,25.3,30.31,West,269,1.0,0.0,71,0.00,CLR,,0.00,WeatherDisplay:10.37,2013-11-16 08:40:00,
2013-11-16 03:50:00,33.5,25.1,30.31,NE,38,0.0,0.0,71,0.00,CLR,,0.00,WeatherDisplay:10.37,2013-11-16 08:50:00,
2013-11-16 04:00:00,34.5,26.0,30.31,NE,49,1.0,0.0,71,0.00,CLR,,0.00,WeatherDisplay:10.37,2013-11-16 09:00:00,
2013-11-16 04:10:00,35.4,26.9,30.31,SSW,202,0.0,0.0,71,0.00,CLR,,0.00,WeatherDisplay:10.37,2013-11-16 09:10:00,
2013-11-16 04:15:00,35.6,27.1,30.31,SSW,202,0.0,0.0,71,0.00,CLR,,0.00,WeatherDisplay:10.37,2013-11-16 09:15:00,
2013-11-16 04:20:00,35.6,27.1,30.31,SSW,202,0.0,0.0,71,0.00,CLR,,0.00,WeatherDisplay:10.37,2013-11-16 09:20:00,
2013-11-16 04:30:00,36.3,27.8,30.32,SSW,202,0.0,0.0,71,0.00,CLR,,0.00,WeatherDisplay:10.37,2013-11-16 09:30:00,
2013-11-16 04:40:00,36.7,28.2,30.32,SSW,202,0.0,0.0,71,0.00,CLR,,0.00,WeatherDisplay:10.37,2013-11-16 09:40:00,
2013-11-16 04:50:00,37.2,28.6,30.32,SSW,202,0.0,0.0,71,0.00,CLR,,0.00,WeatherDisplay:10.37,2013-11-16 09:50:00,
2013-11-16 05:00:00,37.8,29.2,30.32,SSW,202,0.0,0.0,71,0.00,CLR,,0.00,WeatherDisplay:10.37,2013-11-16 10:00:00,
2013-11-16 05:10:00,37.7,29.2,30.32,SSW,202,0.0,0.0,71,0.00,CLR,,0.00,WeatherDisplay:10.37,2013-11-16 10:10:00,
2013-11-16 05:15:00,37.7,29.1,30.32,SSW,202,0.0,0.0,71,0.00,CLR,,0.00,WeatherDisplay:10.37,2013-11-16 10:15:00,
2013-11-16 05:20:00,37.8,29.3,30.32,SSW,202,0.0,0.0,71,0.00,CLR,,0.00,WeatherDisplay:10.37,2013-11-16 10:20:00,
2013-11-16 05:30:00,37.6,29.0,30.32,SSW,202,0.0,0.0,71,0.00,CLR,,0.00,WeatherDisplay:10.37,2013-11-16 10:30:00,
2013-11-16 05:40:00,37.8,29.2,30.32,SSW,202,0.0,0.0,71,0.00,CLR,,0.00,WeatherDisplay:10.37,2013-11-16 10:40:00,
2013-11-16 05:50:00,38.2,29.7,30.32,SSW,202,0.0,0.0,71,0.00,CLR,,0.00,WeatherDisplay:10.37,2013-11-16 10:50:00,
2013-11-16 06:00:00,38.2,29.6,30.32,SSW,202,0.0,0.0,71,0.00,CLR,,0.00,WeatherDisplay:10.37,2013-11-16 11:00:00,
2013-11-16 06:10:00,38.4,29.8,30.32,SSW,202,0.0,0.0,71,0.00,CLR,,0.00,WeatherDisplay:10.37,2013-11-16 11:10:00,
2013-11-16 06:15:00,38.4,29.8,30.32,SSW,202,0.0,0.0,71,0.00,CLR,,0.00,WeatherDisplay:10.37,2013-11-16 11:15:00,
2013-11-16 06:20:00,38.4,29.8,30.32,SSW,202,0.0,0.0,71,0.00,CLR,,0.00,WeatherDisplay:10.37,2013-11-16 11:20:00,
2013-11-16 06:30:00,38.2,29.6,30.33,SSW,202,0.0,0.0,71,0.00,CLR,,0.00,WeatherDisplay:10.37,2013-11-16 11:30:00,
2013-11-16 06:40:00,38.4,29.8,30.33,SSW,202,0.0,0.0,71,0.00,CLR,,0.00,WeatherDisplay:10.37,2013-11-16 11:40:00,
2013-11-16 06:45:00,38.5,29.9,30.33,SSW,202,0.0,0.0,71,0.00,CLR,,0.00,WeatherDisplay:10.37,2013-11-16 11:45:00,
2013-11-16 06:50:00,38.3,29.7,30.33,SSW,202,0.0,0.0,71,0.00,CLR,,0.00,WeatherDisplay:10.37,2013-11-16 11:50:00,
2013-11-16 07:00:00,38.1,29.6,30.34,SSW,202,0.0,0.0,71,0.00,CLR,,0.00,WeatherDisplay:10.37,2013-11-16 12:00:00,
2013-11-16 07:10:00,37.6,29.0,30.35,SSW,202,0.0,0.0,71,0.00,CLR,,0.00,WeatherDisplay:10.37,2013-11-16 12:10:00,
2013-11-16 07:15:00,37.4,28.9,30.35,SSW,202,0.0,0.0,71,0.00,CLR,,0.00,WeatherDisplay:10.37,2013-11-16 12:15:00,
2013-11-16 07:20:00,37.3,28.8,30.35,SSW,202,0.0,0.0,71,0.00,CLR,,0.00,WeatherDisplay:10.37,2013-11-16 12:20:00,
2013-11-16 07:30:00,36.8,28.3,30.36,SSW,202,0.0,0.0,71,0.00,CLR,,0.00,WeatherDisplay:10.37,2013-11-16 12:30:00,
2013-11-16 07:40:00,37.1,28.5,30.36,SSW,202,0.0,0.0,71,0.00,CLR,,0.00,WeatherDisplay:10.37,2013-11-16 12:40:00,
2013-11-16 07:50:00,37.7,29.1,30.36,SSW,202,0.0,0.0,71,0.00,CLR,,0.00,WeatherDisplay:10.37,2013-11-16 12:50:00,
2013-11-16 08:00:00,38.1,29.5,30.36,SSW,202,0.0,0.0,71,0.00,CLR,,0.00,WeatherDisplay:10.37,2013-11-16 13:00:00,
2013-11-16 08:10:00,37.8,29.2,30.36,SSW,202,0.0,0.0,71,0.00,CLR,,0.00,WeatherDisplay:10.37,2013-11-16 13:10:00,
2013-11-16 08:15:00,37.7,29.1,30.37,SSW,202,0.0,0.0,71,0.00,CLR,,0.00,WeatherDisplay:10.37,2013-11-16 13:15:00,
2013-11-16 08:20:00,37.8,29.2,30.37,SSW,202,0.0,0.0,71,0.00,CLR,,0.00,WeatherDisplay:10.37,2013-11-16 13:20:00,
2013-11-16 08:30:00,38.0,29.4,30.37,SSW,202,0.0,0.0,71,0.00,CLR,,0.00,WeatherDisplay:10.37,2013-11-16 13:30:00,
2013-11-16 08:40:00,38.1,29.5,30.37,SSW,202,0.0,0.0,71,0.00,CLR,,0.00,WeatherDisplay:10.37,2013-11-16 13:40:00,
2013-11-16 08:50:00,39.0,30.4,30.37,SSW,202,0.0,0.0,71,0.00,CLR,,0.00,WeatherDisplay:10.37,2013-11-16 13:50:00,
2013-11-16 09:00:00,40.9,32.2,30.38,SSW,202,0.0,0.0,71,0.00,CLR,,0.00,WeatherDisplay:10.37,2013-11-16 14:00:00,
2013-11-16 09:10:00,42.0,33.3,30.37,SSW,202,0.0,0.0,71,0.00,CLR,,0.00,WeatherDisplay:10.37,2013-11-16 14:10:00,
2013-11-16 09:15:00,42.5,33.8,30.38,SSW,202,0.0,0.0,71,0.00,CLR,,0.00,WeatherDisplay:10.37,2013-11-16 14:15:00,
2013-11-16 09:20:00,42.5,33.7,30.38,SSW,202,0.0,0.0,71,0.00,CLR,,0.00,WeatherDisplay:10.37,2013-11-16 14:20:00,
2013-11-16 09:30:00,43.8,35.0,30.38,SSW,202,0.0,0.0,71,0.00,CLR,,0.00,WeatherDisplay:10.37,2013-11-16 14:30:00,
2013-11-16 09:40:00,45.3,36.4,30.38,SSW,202,0.0,0.0,71,0.00,CLR,,0.00,WeatherDisplay:10.37,2013-11-16 14:40:00,
2013-11-16 09:50:00,45.6,36.8,30.38,SSW,202,0.0,0.0,71,0.00,CLR,,0.00,WeatherDisplay:10.37,2013-11-16 14:50:00,
2013-11-16 09:55:00,46.3,37.4,30.38,SSW,202,0.0,0.0,71,0.00,CLR,,0.00,WeatherDisplay:10.37,2013-11-16 14:55:00,
2013-11-16 10:00:00,46.9,38.0,30.38,SSW,202,0.0,0.0,71,0.00,CLR,,0.00,WeatherDisplay:10.37,2013-11-16 15:00:00,
2013-11-16 10:10:00,47.2,38.3,30.38,SSW,202,0.0,0.0,71,0.00,CLR,,0.00,WeatherDisplay:10.37,2013-11-16 15:10:00,
2013-11-16 10:15:00,47.6,38.6,30.38,SSW,202,0.0,0.0,71,0.00,CLR,,0.00,WeatherDisplay:10.37,2013-11-16 15:15:00,
2013-11-16 10:25:00,48.1,39.1,30.38,SSW,202,0.0,0.0,71,0.00,CLR,,0.00,WeatherDisplay:10.37,2013-11-16 15:25:00,
2013-11-16 10:30:00,48.5,39.5,30.38,SSW,202,0.0,0.0,71,0.00,CLR,,0.00,WeatherDisplay:10.37,2013-11-16 15:30:00,
2013-11-16 10:40:00,48.7,39.7,30.38,SSW,206,0.0,0.0,71,0.00,CLR,,0.00,WeatherDisplay:10.37,2013-11-16 15:40:00,
2013-11-16 10:50:00,49.5,40.5,30.38,SSW,209,0.0,0.0,71,0.00,CLR,,0.00,WeatherDisplay:10.37,2013-11-16 15:50:00,
2013-11-16 11:00:00,50.3,41.3,30.38,SSW,209,0.0,0.0,71,0.00,CLR,,0.00,WeatherDisplay:10.37,2013-11-16 16:00:00,
2013-11-16 11:10:00,51.3,42.2,30.37,SSW,205,0.0,0.0,71,0.00,CLR,,0.00,WeatherDisplay:10.37,2013-11-16 16:10:00,
2013-11-16 11:15:00,51.4,42.3,30.37,SSW,196,0.0,0.0,71,0.00,CLR,,0.00,WeatherDisplay:10.37,2013-11-16 16:15:00,
2013-11-16 11:20:00,51.5,42.4,30.36,SSW,192,0.0,0.0,71,0.00,CLR,,0.00,WeatherDisplay:10.37,2013-11-16 16:20:00,
2013-11-16 11:30:00,51.7,42.6,30.36,SE,133,3.0,0.0,71,0.00,CLR,,0.00,WeatherDisplay:10.37,2013-11-16 16:30:00,
2013-11-16 11:40:00,52.7,43.6,30.36,ESE,114,0.0,0.0,71,0.00,CLR,,0.00,WeatherDisplay:10.37,2013-11-16 16:40:00,
2013-11-16 11:50:00,54.0,44.8,30.35,ESE,117,1.0,0.0,71,0.00,CLR,,0.00,WeatherDisplay:10.37,2013-11-16 16:50:00,
2013-11-16 12:00:00,54.3,45.1,30.34,SE,138,0.0,0.0,71,0.00,CLR,,0.00,WeatherDisplay:10.37,2013-11-16 17:00:00,
2013-11-16 12:11:00,54.1,44.9,30.34,North,357,1.0,0.0,71,0.00,CLR,,0.00,WeatherDisplay:10.37,2013-11-16 17:11:00,
2013-11-16 12:20:00,55.5,46.3,30.33,North,354,0.0,0.0,71,0.00,CLR,,0.00,WeatherDisplay:10.37,2013-11-16 17:20:00,
2013-11-16 12:30:00,56.6,47.3,30.33,NNW,335,0.0,0.0,71,0.00,CLR,,0.00,WeatherDisplay:10.37,2013-11-16 17:30:00,
2013-11-16 12:40:00,55.7,46.4,30.33,North,353,1.0,0.0,71,0.00,CLR,,0.00,WeatherDisplay:10.37,2013-11-16 17:40:00,
2013-11-16 12:45:00,56.1,46.8,30.33,North,353,1.0,0.0,71,0.00,CLR,,0.00,WeatherDisplay:10.37,2013-11-16 17:45:00,
2013-11-16 12:50:00,55.9,46.7,30.33,North,352,0.0,0.0,71,0.00,CLR,,0.00,WeatherDisplay:10.37,2013-11-16 17:50:00,
2013-11-16 13:00:00,56.5,47.2,30.32,North,355,0.0,0.0,71,0.00,CLR,,0.00,WeatherDisplay:10.37,2013-11-16 18:00:00,
2013-11-16 13:10:00,57.1,47.8,30.32,North,354,0.0,0.0,71,0.00,CLR,,0.00,WeatherDisplay:10.37,2013-11-16 18:10:00,
2013-11-16 13:15:00,57.2,47.9,30.32,North,353,0.0,0.0,71,0.00,CLR,,0.00,WeatherDisplay:10.37,2013-11-16 18:15:00,
2013-11-16 13:20:00,57.6,48.3,30.33,North,353,0.0,0.0,71,0.00,CLR,,0.00,WeatherDisplay:10.37,2013-11-16 18:20:00,
2013-11-16 13:30:00,57.6,48.3,30.32,North,353,0.0,0.0,71,0.00,CLR,,0.00,WeatherDisplay:10.37,2013-11-16 18:30:00,
2013-11-16 13:35:00,57.3,47.9,30.32,North,353,0.0,0.0,71,0.00,CLR,,0.00,WeatherDisplay:10.37,2013-11-16 18:35:00,
2013-11-16 13:45:00,58.2,48.9,30.32,NNW,346,0.0,0.0,71,0.00,CLR,,0.00,WeatherDisplay:10.37,2013-11-16 18:45:00,
2013-11-16 13:50:00,58.7,49.3,30.32,NNW,337,0.0,0.0,71,0.00,CLR,,0.00,WeatherDisplay:10.37,2013-11-16 18:50:00,
2013-11-16 14:00:00,57.7,48.4,30.32,NNW,337,0.0,0.0,71,0.00,CLR,,0.00,WeatherDisplay:10.37,2013-11-16 19:00:00,
2013-11-16 14:10:00,58.0,48.7,30.32,NW,326,0.0,0.0,71,0.00,CLR,,0.00,WeatherDisplay:10.37,2013-11-16 19:10:00,
2013-11-16 14:15:00,58.3,48.9,30.32,WNW,301,0.0,0.0,71,0.00,CLR,,0.00,WeatherDisplay:10.37,2013-11-16 19:15:00,
2013-11-16 14:20:00,57.7,48.3,30.32,WNW,298,0.0,0.0,71,0.00,CLR,,0.00,WeatherDisplay:10.37,2013-11-16 19:20:00,
2013-11-16 14:30:00,56.8,47.5,30.32,WNW,298,0.0,0.0,71,0.00,CLR,,0.00,WeatherDisplay:10.37,2013-11-16 19:30:00,
2013-11-16 14:40:00,55.9,46.6,30.32,WNW,299,0.0,0.0,71,0.00,CLR,,0.00,WeatherDisplay:10.37,2013-11-16 19:40:00,
2013-11-16 14:50:00,55.5,46.2,30.32,WSW,254,0.0,0.0,71,0.00,CLR,,0.00,WeatherDisplay:10.37,2013-11-16 19:50:00,
2013-11-16 15:00:00,55.1,45.9,30.32,WSW,239,1.0,0.0,71,0.00,CLR,,0.00,WeatherDisplay:10.37,2013-11-16 20:00:00,
2013-11-16 15:10:00,54.4,45.2,30.32,SW,230,0.0,0.0,71,0.00,CLR,,0.00,WeatherDisplay:10.37,2013-11-16 20:10:00,
2013-11-16 15:15:00,54.6,45.4,30.32,SW,230,0.0,0.0,71,0.00,CLR,,0.00,WeatherDisplay:10.37,2013-11-16 20:15:00,
2013-11-16 15:20:00,54.2,45.0,30.32,SW,230,0.0,0.0,71,0.00,CLR,,0.00,WeatherDisplay:10.37,2013-11-16 20:20:00,
2013-11-16 15:30:00,53.0,43.9,30.32,SW,230,0.0,0.0,71,0.00,CLR,,0.00,WeatherDisplay:10.37,2013-11-16 20:30:00,
2013-11-16 15:40:00,52.0,42.9,30.32,SW,230,0.0,0.0,71,0.00,CLR,,0.00,WeatherDisplay:10.37,2013-11-16 20:40:00,
2013-11-16 15:45:00,51.6,42.5,30.32,SW,230,0.0,0.0,71,0.00,CLR,,0.00,WeatherDisplay:10.37,2013-11-16 20:45:00,
2013-11-16 15:46:00,40.1,31.5,30.35,SW,230,0.0,0.0,71,0.00,CLR,,0.00,WeatherDisplay:10.37,2013-11-16 20:46:00,
2013-11-16 15:47:00,40.1,31.5,30.35,SW,230,0.0,0.0,71,0.00,CLR,,0.00,WeatherDisplay:10.37,2013-11-16 20:47:00,
2013-11-16 15:48:00,40.1,31.5,30.35,SW,230,0.0,0.0,71,0.00,CLR,,0.00,WeatherDisplay:10.37,2013-11-16 20:48:00,
2013-11-16 15:49:00,40.1,31.5,30.35,SW,230,0.0,0.0,71,0.00,CLR,,0.00,WeatherDisplay:10.37,2013-11-16 20:49:00,
2013-11-16 15:50:00,50.8,41.7,30.32,SW,230,0.0,0.0,71,0.00,CLR,,0.00,WeatherDisplay:10.37,2013-11-16 20:50:00,
2013-11-16 15:51:00,39.1,30.5,30.34,WSW,255,0.0,0.0,71,0.00,CLR,,0.00,WeatherDisplay:10.37,2013-11-16 20:51:00,
2013-11-16 15:52:00,39.1,30.5,30.34,WSW,255,0.0,0.0,71,0.00,CLR,,0.00,WeatherDisplay:10.37,2013-11-16 20:52:00,
2013-11-16 15:53:00,39.1,30.5,30.34,WSW,255,0.0,0.0,71,0.00,CLR,,0.00,WeatherDisplay:10.37,2013-11-16 20:53:00,
2013-11-16 15:54:00,39.1,30.5,30.34,WSW,255,0.0,0.0,71,0.00,CLR,,0.00,WeatherDisplay:10.37,2013-11-16 20:54:00,
2013-11-16 15:55:00,39.1,30.5,30.34,WSW,255,0.0,0.0,71,0.00,CLR,,0.00,WeatherDisplay:10.37,2013-11-16 20:55:00,
2013-11-16 15:56:00,39.0,30.4,30.34,NNW,347,0.0,0.0,71,0.00,CLR,,0.00,WeatherDisplay:10.37,2013-11-16 20:56:00,
2013-11-16 15:57:00,39.0,30.4,30.34,NNW,347,0.0,0.0,71,0.00,CLR,,0.00,WeatherDisplay:10.37,2013-11-16 20:57:00,
2013-11-16 15:58:00,39.0,30.4,30.34,NNW,347,0.0,0.0,71,0.00,CLR,,0.00,WeatherDisplay:10.37,2013-11-16 20:58:00,
2013-11-16 15:59:00,39.0,30.4,30.34,NNW,347,0.0,0.0,71,0.00,CLR,,0.00,WeatherDisplay:10.37,2013-11-16 20:59:00,
2013-11-16 16:00:00,50.0,41.0,30.32,SW,230,0.0,0.0,71,0.00,CLR,,0.00,WeatherDisplay:10.37,2013-11-16 21:00:00,
2013-11-16 16:10:00,49.8,40.8,30.33,SW,230,0.0,0.0,71,0.00,CLR,,0.00,WeatherDisplay:10.37,2013-11-16 21:10:00,
2013-11-16 16:15:00,49.3,40.3,30.33,SW,230,0.0,0.0,71,0.00,CLR,,0.00,WeatherDisplay:10.37,2013-11-16 21:15:00,
2013-11-16 16:20:00,49.0,40.0,30.33,SW,230,0.0,0.0,71,0.00,CLR,,0.00,WeatherDisplay:10.37,2013-11-16 21:20:00,
2013-11-16 16:30:00,48.0,39.1,30.33,SW,230,0.0,0.0,71,0.00,CLR,,0.00,WeatherDisplay:10.37,2013-11-16 21:30:00,
2013-11-16 16:40:00,47.5,38.5,30.32,SW,230,0.0,0.0,71,0.00,CLR,,0.00,WeatherDisplay:10.37,2013-11-16 21:40:00,
2013-11-16 16:50:00,46.7,37.8,30.32,SW,230,0.0,0.0,71,0.00,CLR,,0.00,WeatherDisplay:10.37,2013-11-16 21:50:00,
2013-11-16 16:55:00,46.1,37.2,30.32,SW,230,0.0,0.0,71,0.00,CLR,,0.00,WeatherDisplay:10.37,2013-11-16 21:55:00,
2013-11-16 17:05:00,45.5,36.6,30.33,SW,230,0.0,0.0,71,0.00,CLR,,0.00,WeatherDisplay:10.37,2013-11-16 22:05:00,
2013-11-16 17:10:00,45.1,36.3,30.33,SW,230,0.0,0.0,71,0.00,CLR,,0.00,WeatherDisplay:10.37,2013-11-16 22:10:00,
2013-11-16 17:15:00,45.1,36.3,30.33,SW,230,0.0,0.0,71,0.00,CLR,,0.00,WeatherDisplay:10.37,2013-11-16 22:15:00,
2013-11-16 17:20:00,44.8,36.0,30.33,SW,230,0.0,0.0,71,0.00,CLR,,0.00,WeatherDisplay:10.37,2013-11-16 22:20:00,
2013-11-16 17:30:00,44.2,35.4,30.33,SW,230,0.0,0.0,71,0.00,CLR,,0.00,WeatherDisplay:10.37,2013-11-16 22:30:00,
2013-11-16 17:40:00,43.7,34.9,30.33,SW,230,0.0,0.0,71,0.00,CLR,,0.00,WeatherDisplay:10.37,2013-11-16 22:40:00,
2013-11-16 17:50:00,43.3,34.5,30.33,SW,230,0.0,0.0,71,0.00,CLR,,0.00,WeatherDisplay:10.37,2013-11-16 22:50:00,
2013-11-16 18:00:00,42.7,34.0,30.33,SW,230,0.0,0.0,71,0.00,CLR,,0.00,WeatherDisplay:10.37,2013-11-16 23:00:00,
2013-11-16 18:10:00,43.0,34.2,30.34,SW,230,0.0,0.0,71,0.00,CLR,,0.00,WeatherDisplay:10.37,2013-11-16 23:10:00,
2013-11-16 18:15:00,43.2,34.5,30.34,SW,230,0.0,0.0,71,0.00,CLR,,0.00,WeatherDisplay:10.37,2013-11-16 23:15:00,
2013-11-16 18:20:00,42.2,33.4,30.34,SW,230,0.0,0.0,71,0.00,CLR,,0.00,WeatherDisplay:10.37,2013-11-16 23:20:00,
2013-11-16 18:30:00,42.2,33.5,30.34,SW,230,0.0,0.0,71,0.00,CLR,,0.00,WeatherDisplay:10.37,2013-11-16 23:30:00,
2013-11-16 18:40:00,41.8,33.0,30.34,SW,230,0.0,0.0,71,0.00,CLR,,0.00,WeatherDisplay:10.37,2013-11-16 23:40:00,
2013-11-16 18:45:00,41.5,32.7,30.34,SW,230,0.0,0.0,71,0.00,CLR,,0.00,WeatherDisplay:10.37,2013-11-16 23:45:00,
2013-11-16 18:50:00,41.4,32.7,30.34,SW,230,0.0,0.0,71,0.00,CLR,,0.00,WeatherDisplay:10.37,2013-11-16 23:50:00,
2013-11-16 19:00:00,41.3,32.6,30.34,SW,230,0.0,0.0,71,0.00,CLR,,0.00,WeatherDisplay:10.37,2013-11-17 00:00:00,
2013-11-16 19:10:00,41.1,32.4,30.35,SW,230,0.0,0.0,71,0.00,CLR,,0.00,WeatherDisplay:10.37,2013-11-17 00:10:00,
2013-11-16 19:11:00,51.8,42.7,30.22,North,356,0.0,0.0,71,0.00,CLR,,0.00,WeatherDisplay:10.37,2013-11-17 00:11:00,
2013-11-16 19:12:00,51.8,42.7,30.22,North,356,0.0,0.0,71,0.00,CLR,,0.00,WeatherDisplay:10.37,2013-11-17 00:12:00,
2013-11-16 19:13:00,51.8,42.7,30.22,North,356,0.0,0.0,71,0.00,CLR,,0.00,WeatherDisplay:10.37,2013-11-17 00:13:00,
2013-11-16 19:14:00,51.8,42.7,30.22,North,356,0.0,0.0,71,0.00,CLR,,0.00,WeatherDisplay:10.37,2013-11-17 00:14:00,
2013-11-16 19:15:00,40.9,32.2,30.35,SW,230,0.0,0.0,71,0.00,CLR,,0.00,WeatherDisplay:10.37,2013-11-17 00:15:00,
2013-11-16 19:20:00,40.7,32.1,30.35,SW,230,0.0,0.0,71,0.00,CLR,,0.00,WeatherDisplay:10.37,2013-11-17 00:20:00,
2013-11-16 19:30:00,40.5,31.8,30.35,SW,230,0.0,0.0,71,0.00,CLR,,0.00,WeatherDisplay:10.37,2013-11-17 00:30:00,
2013-11-16 19:40:00,40.5,31.8,30.35,SW,230,0.0,0.0,71,0.00,CLR,,0.00,WeatherDisplay:10.37,2013-11-17 00:40:00,
2013-11-16 19:45:00,40.3,31.6,30.35,SW,230,0.0,0.0,71,0.00,CLR,,0.00,WeatherDisplay:10.37,2013-11-17 00:45:00,
2013-11-16 19:50:00,40.3,31.6,30.35,SW,230,0.0,0.0,71,0.00,CLR,,0.00,WeatherDisplay:10.37,2013-11-17 00:50:00,
2013-11-16 20:00:00,40.1,31.5,30.35,SW,230,0.0,0.0,71,0.00,CLR,,0.00,WeatherDisplay:10.37,2013-11-17 01:00:00,
2013-11-16 20:51:00,38.7,30.1,30.34,North,0,0.0,0.0,71,0.00,CLR,,0.00,WeatherDisplay:10.37,2013-11-17 01:51:00,
2013-11-16 20:56:00,38.8,30.2,30.34,North,0,0.0,0.0,71,0.00,CLR,,0.00,WeatherDisplay:10.37,2013-11-17 01:56:00,
2013-11-16 21:01:00,39.0,30.4,30.34,North,0,0.0,0.0,71,0.00,CLR,,0.00,WeatherDisplay:10.37,2013-11-17 02:01:00,
2013-11-16 21:06:00,38.7,30.1,30.34,North,0,0.0,0.0,71,0.00,CLR,,0.00,WeatherDisplay:10.37,2013-11-17 02:06:00,
2013-11-16 21:11:00,38.7,30.1,30.34,North,0,0.0,0.0,71,0.00,CLR,,0.00,WeatherDisplay:10.37,2013-11-17 02:11:00,
2013-11-16 21:16:00,38.4,29.8,30.34,North,0,0.0,0.0,71,0.00,CLR,,0.00,WeatherDisplay:10.37,2013-11-17 02:16:00,
2013-11-16 21:21:00,38.4,29.8,30.34,North,0,0.0,0.0,71,0.00,CLR,,0.00,WeatherDisplay:10.37,2013-11-17 02:21:00,
2013-11-16 21:26:00,38.1,29.5,30.34,North,0,0.0,0.0,71,0.00,CLR,,0.00,WeatherDisplay:10.37,2013-11-17 02:26:00,
2013-11-16 21:31:00,38.1,29.5,30.34,North,0,0.0,0.0,71,0.00,CLR,,0.00,WeatherDisplay:10.37,2013-11-17 02:31:00,
2013-11-16 21:36:00,37.8,29.3,30.33,North,0,0.0,0.0,71,0.00,CLR,,0.00,WeatherDisplay:10.37,2013-11-17 02:36:00,
2013-11-16 21:46:00,37.7,29.1,30.33,North,0,0.0,0.0,71,0.00,CLR,,0.00,WeatherDisplay:10.37,2013-11-17 02:46:00,
2013-11-16 21:56:00,37.8,29.2,30.33,North,0,0.0,0.0,71,0.00,CLR,,0.00,WeatherDisplay:10.37,2013-11-17 02:56:00,
2013-11-16 22:01:00,37.7,29.1,30.33,North,0,0.0,0.0,71,0.00,CLR,,0.00,WeatherDisplay:10.37,2013-11-17 03:01:00,
2013-11-16 22:06:00,37.4,28.9,30.33,North,0,0.0,0.0,71,0.00,CLR,,0.00,WeatherDisplay:10.37,2013-11-17 03:06:00,
2013-11-16 22:11:00,37.0,28.4,30.33,North,0,0.0,0.0,71,0.00,CLR,,0.00,WeatherDisplay:10.37,2013-11-17 03:11:00,
2013-11-16 22:16:00,37.2,28.7,30.33,North,0,0.0,0.0,71,0.00,CLR,,0.00,WeatherDisplay:10.37,2013-11-17 03:16:00,
2013-11-16 22:26:00,36.9,28.4,30.33,North,0,0.0,0.0,71,0.00,CLR,,0.00,WeatherDisplay:10.37,2013-11-17 03:26:00,
2013-11-16 22:31:00,36.8,28.3,30.33,North,0,0.0,0.0,71,0.00,CLR,,0.00,WeatherDisplay:10.37,2013-11-17 03:31:00,
2013-11-16 22:36:00,36.8,28.3,30.33,North,0,0.0,0.0,71,0.00,CLR,,0.00,WeatherDisplay:10.37,2013-11-17 03:36:00,
2013-11-16 22:41:00,36.5,28.0,30.33,North,0,0.0,0.0,71,0.00,CLR,,0.00,WeatherDisplay:10.37,2013-11-17 03:41:00,
2013-11-16 22:46:00,36.3,27.8,30.34,North,0,0.0,0.0,71,0.00,CLR,,0.00,WeatherDisplay:10.37,2013-11-17 03:46:00,
2013-11-16 22:56:00,36.3,27.8,30.34,North,0,0.0,0.0,71,0.00,CLR,,0.00,WeatherDisplay:10.37,2013-11-17 03:56:00,
2013-11-16 23:01:00,36.3,27.8,30.34,North,0,0.0,0.0,71,0.00,CLR,,0.00,WeatherDisplay:10.37,2013-11-17 04:01:00,
2013-11-16 23:06:00,36.3,27.8,30.34,North,0,0.0,0.0,71,0.00,CLR,,0.00,WeatherDisplay:10.37,2013-11-17 04:06:00,
2013-11-16 23:16:00,36.1,27.6,30.33,North,0,0.0,0.0,71,0.00,CLR,,0.00,WeatherDisplay:10.37,2013-11-17 04:16:00,
2013-11-16 23:26:00,35.9,27.4,30.33,North,0,0.0,0.0,71,0.00,CLR,,0.00,WeatherDisplay:10.37,2013-11-17 04:26:00,
2013-11-16 23:31:00,36.0,27.5,30.33,North,0,0.0,0.0,71,0.00,CLR,,0.00,WeatherDisplay:10.37,2013-11-17 04:31:00,
2013-11-16 23:36:00,35.9,27.4,30.33,North,0,0.0,0.0,71,0.00,CLR,,0.00,WeatherDisplay:10.37,2013-11-17 04:36:00,
2013-11-16 23:41:00,35.7,27.2,30.32,North,0,0.0,0.0,71,0.00,CLR,,0.00,WeatherDisplay:10.37,2013-11-17 04:41:00,
2013-11-16 23:46:00,35.7,27.2,30.32,North,0,0.0,0.0,71,0.00,CLR,,0.00,WeatherDisplay:10.37,2013-11-17 04:46:00,
2013-11-16 23:56:00,35.6,27.1,30.32,North,0,0.0,0.0,71,0.00,CLR,,0.00,WeatherDisplay:10.37,2013-11-17 04:56:00,